Historyczne dane pomiarowe

Dodano dane terminowe – wersja testowa.

Dane z okresu 1951-2019

Wersja bazy: 1.34 [2019-03-16, lista zmian], aktualizacja planowana na 2019-04-15

Dane meteo z obszaru Polski uzyskane na podstawie danych udostępnionych przez Instytut Meteorologii i Gospodarki Wodnej – Państwowy Instytut Badawczy.

 

Wybierz Datę:    

       

TemperaturaWilgotnośćWiatrCiśnienieOpadyŚniegCzas trwania zjawisk
 Stacja t tx tn tng RH VA  wxwx mslp ppp RRR   cm mm wxwxwxwxwxwxwx
1987-08-14 13.7 19.7 9.9- 84.0- 2.7 4.0---- 0.0------------
1987-08-13 11.8 16.7 1.5- 78.8- 4.0 2.0---- 0.0------------
1987-08-12 11.5 17.1 2.6- 78.3- 4.0 7.0---- 0.0------------
1987-08-11 12.0 17.1 7.4- 77.8- 3.3 1.7---- 0.0------------
1987-08-10 13.5 17.7 11.2- 83.8- 8.0 1.3---- 16.8------------
1987-08-09 14.4 20.7 4.0- 72.0- 4.0 3.3---- 0.0------------
1987-08-08 11.0 17.5 5.7- 81.5- 3.0 1.0---- 0.0------------
1987-08-07 9.7 14.3 3.0- 85.5- 5.7 2.7---- 0.0------------
1987-08-06 10.9 15.1 7.7- 83.3- 6.7 3.3---- 2.0------------
1987-08-05 12.0 15.1 7.9- 84.5- 6.0 1.0---- 0.0------------
1987-08-04 11.8 17.1 7.9- 89.5- 7.7 2.0---- 13.0------------
1987-08-03 14.8 19.1 7.7- 75.0- 4.0 1.3---- 0.0------------
1987-08-02 14.0 17.3 7.9- 80.5- 5.0 2.3---- 0.0------------
1987-08-01 14.8 20.7 8.4- 84.3- 5.0 1.0---- 0.0------------
1987-07-31 15.6 18.1 12.6- 76.5- 6.0 2.7---- 8.4------------
1987-07-30 16.2 20.7 8.4- 75.8- 4.0 4.0---- 0.0------------
1987-07-29 11.5 16.1 7.7- 85.3- 5.3 1.0---- 0.0------------
1987-07-28 11.1 12.5 6.9- 90.8- 7.7 5.3---- 10.2------------
1987-07-27 12.8 16.5 7.1- 76.5- 4.3 3.7---- 0.0------------
1987-07-26 16.1 19.7 13.0- 93.8- 8.0 2.0---- 7.0------------
1987-07-25 19.5 23.1 14.0- 90.3- 5.3 2.0---- 5.0------------
1987-07-24 20.2 26.6 11.9- 81.5- 5.3 2.3---- 12.5------------
1987-07-23 19.1 26.7 11.7- 79.3- 3.7 1.0---- 0.0------------
1987-07-22 19.4 25.6 11.9- 80.3- 2.7 1.7---- 0.0------------
1987-07-21 20.6 26.6 13.0- 76.5- 1.3 1.3---- 0.0------------
1987-07-20 20.6 27.3 15.6- 83.3- 1.7 1.3---- 0.0------------
1987-07-19 22.4 30.1 15.0- 75.3- 1.7 1.3---- 0.0------------
1987-07-18 21.7 27.6 11.4- 80.3- 3.3 4.3---- 0.0------------
1987-07-17 20.5 27.1 12.5- 74.3- 2.0 2.0---- 0.0------------
1987-07-16 18.4 25.9 6.9- 68.8- 1.7 2.7---- 0.0------------
1987-07-15 15.1 22.1 4.8- 75.5- 0.7 1.0---- 0.0------------
1987-07-14 16.2 19.3 11.9- 69.3- 1.3 2.3---- 0.0------------
1987-07-13 18.3 22.1 12.1- 80.5- 0.3 2.0---- 0.0------------
1987-07-12 18.0 23.7 5.4- 70.8- 2.7 6.0---- 0.0------------
1987-07-11 15.0 21.8 4.8- 63.0- 2.3 1.7---- 0.0------------
1987-07-10 15.0 18.3 9.4- 70.3- 3.3 5.3---- 0.0------------
1987-07-09 20.2 25.6 13.0- 74.8- 3.3 7.0---- 6.5------------
1987-07-08 19.5 25.6 7.9- 55.5- 0.0 4.0---- 0.0------------
1987-07-07 15.1 23.1 4.5- 69.0- 0.0 1.3---- 0.0------------
1987-07-06 16.2 20.7 7.9- 66.0- 0.0 1.0---- 0.0------------
1987-07-05 15.1 18.6 11.9- 83.0- 4.7 4.3---- 1.5------------
1987-07-04 19.5 22.6 13.3- 70.3- 2.3 6.0---- 0.0------------
1987-07-03 17.5 21.6 13.5- 81.0- 5.0 4.0---- 0.0------------
1987-07-02 18.7 24.6 13.0- 90.5- 5.7 2.0---- 0.0------------
1987-07-01 22.1 28.6 13.0- 78.0- 0.7 1.0---- 0.0------------
1987-06-30 20.8 28.1 10.9- 84.0- 1.0 1.0---- 0.0------------
1987-06-29 18.9 23.8 13.0- 84.5- 1.7 1.0---- 0.0------------
1987-06-28 18.5 23.6 12.5- 84.3- 2.3 1.0---- 0.0------------
1987-06-27 18.4 23.2 13.7- 73.3- 4.0 3.3---- 0.0------------
1987-06-26 15.3 20.4 8.9- 71.8- 2.0 2.0---- 0.0------------
1987-06-25 13.9 18.6 8.9- 69.3- 2.7 1.0---- 0.0------------
1987-06-24 14.2 18.6 9.9- 88.0- 2.7 1.0---- 0.0------------
1987-06-23 14.4 18.6 11.4- 89.3- 4.7 1.7---- 0.0------------
1987-06-22 14.9 20.4 9.9- 86.8- 5.3 1.0---- 25.0------------
1987-06-21 14.4 20.7 5.0- 80.5- 3.7 1.0---- 4.9------------
1987-06-20 14.4 20.2 3.0- 69.5- 1.3 1.3---- 0.0------------
1987-06-19 11.3 15.6 6.6- 80.0- 4.7 2.3---- 0.0------------
1987-06-18 10.4 15.3 3.8- 86.5- 3.0 4.0---- 4.0------------
1987-06-17 10.3 14.1 8.1- 84.3- 5.0 1.0---- 2.2------------
1987-06-16 16.9 21.9 9.0- 74.5- 7.3 3.3---- 28.0------------
493.0 ms

 

Źródłem pochodzenia danych jest Instytut Meteorologii i Gospodarki Wodnej – Państwowy Instytut Badawczy. Dane Instytutu Meteorologii i Gospodarki Wodnej – Państwowego Instytutu Badawczego zostały przetworzone.

Dane źródłowe można odnaleźć na stronie https://dane.imgw.pl